createdAt,value
2023-02-19T00:01:57.172Z,8.83
2023-02-19T00:05:03.999Z,8.78
2023-02-19T00:08:11.437Z,8.73
2023-02-19T00:11:18.696Z,8.71
2023-02-19T00:14:26.016Z,8.69
2023-02-19T00:17:33.279Z,8.68
2023-02-19T00:20:40.617Z,8.65
2023-02-19T00:23:47.961Z,8.66
2023-02-19T00:26:55.781Z,8.69
2023-02-19T00:30:03.271Z,8.68
2023-02-19T00:33:10.691Z,8.66
2023-02-19T00:36:17.793Z,8.65
2023-02-19T00:39:25.464Z,8.63
2023-02-19T00:42:33.201Z,8.62
2023-02-19T00:45:40.191Z,8.62
2023-02-19T00:48:47.812Z,8.58
2023-02-19T00:51:55.248Z,8.55
2023-02-19T00:55:02.243Z,8.51
2023-02-19T00:58:09.756Z,8.50
2023-02-19T01:01:16.702Z,8.47
2023-02-19T01:04:24.405Z,8.47
2023-02-19T01:07:32.197Z,8.47
2023-02-19T01:10:39.094Z,8.48
2023-02-19T01:13:46.851Z,8.48
2023-02-19T01:16:54.538Z,8.48
2023-02-19T01:20:01.416Z,8.48
2023-02-19T01:23:08.977Z,8.51
2023-02-19T01:25:07.391Z,8.51
2023-02-19T01:28:14.583Z,8.51
2023-02-19T01:31:21.939Z,8.51
2023-02-19T01:34:29.253Z,8.51
2023-02-19T01:37:36.469Z,8.53
2023-02-19T01:40:43.721Z,8.53
2023-02-19T01:43:51.051Z,8.53
2023-02-19T01:46:58.374Z,8.50
2023-02-19T01:50:05.546Z,8.51
2023-02-19T01:53:13.030Z,8.50
2023-02-19T01:56:20.179Z,8.50
2023-02-19T01:59:27.429Z,8.48
2023-02-19T02:02:35.023Z,8.50
2023-02-19T02:05:42.073Z,8.48
2023-02-19T02:08:49.669Z,8.47
2023-02-19T02:11:57.067Z,8.47
2023-02-19T02:15:04.299Z,8.45
2023-02-19T02:18:12.005Z,8.42
2023-02-19T02:21:19.084Z,8.40
2023-02-19T02:24:26.704Z,8.40
2023-02-19T02:27:34.317Z,8.39
2023-02-19T02:30:41.715Z,8.25
2023-02-19T02:33:48.899Z,8.17
2023-02-19T02:36:56.055Z,8.11
2023-02-19T02:40:03.265Z,8.10
2023-02-19T02:43:10.767Z,8.04
2023-02-19T02:46:17.771Z,8.00
2023-02-19T02:49:25.558Z,8.00
2023-02-19T02:52:32.716Z,8.00
2023-02-19T02:55:40.403Z,7.97
2023-02-19T02:58:48.279Z,7.97
2023-02-19T03:01:55.477Z,7.97
2023-02-19T03:05:02.730Z,7.97
2023-02-19T03:08:10.066Z,7.94
2023-02-19T03:11:17.349Z,7.93
2023-02-19T03:14:24.896Z,7.92
2023-02-19T03:17:32.091Z,7.92
2023-02-19T03:20:39.374Z,7.89
2023-02-19T03:23:46.894Z,7.89
2023-02-19T03:26:54.214Z,7.87
2023-02-19T03:30:01.560Z,7.87
2023-02-19T03:33:09.332Z,7.87
2023-02-19T03:36:16.538Z,7.89
2023-02-19T03:39:23.880Z,7.87
2023-02-19T03:42:31.058Z,7.89
2023-02-19T03:45:38.656Z,7.89
2023-02-19T03:48:46.008Z,7.89
2023-02-19T03:51:53.080Z,7.89
2023-02-19T03:55:00.803Z,7.87
2023-02-19T03:58:07.795Z,7.84
2023-02-19T04:01:15.572Z,7.24
2023-02-19T04:04:23.409Z,7.02
2023-02-19T04:07:30.740Z,6.79
2023-02-19T04:10:38.086Z,6.54
2023-02-19T04:13:45.156Z,6.35
2023-02-19T04:16:53.000Z,6.09
2023-02-19T04:20:00.635Z,5.91
2023-02-19T04:23:08.187Z,5.77
2023-02-19T04:26:15.547Z,5.64
2023-02-19T04:29:22.861Z,5.53
2023-02-19T04:32:30.246Z,5.53
2023-02-19T04:35:38.026Z,5.41
2023-02-19T04:38:45.067Z,5.41
2023-02-19T04:41:52.703Z,5.38
2023-02-19T04:45:00.421Z,5.32
2023-02-19T04:48:07.339Z,5.34
2023-02-19T04:51:15.158Z,5.28
2023-02-19T04:54:22.917Z,5.23
2023-02-19T04:57:29.949Z,5.19
2023-02-19T05:00:37.792Z,5.25
2023-02-19T05:03:45.217Z,5.22
2023-02-19T05:06:52.552Z,5.14
2023-02-19T05:10:00.423Z,5.02
2023-02-19T05:13:08.269Z,4.95
2023-02-19T05:16:16.226Z,4.88
2023-02-19T05:19:24.353Z,4.76
2023-02-19T05:22:31.430Z,4.73
2023-02-19T05:25:39.373Z,4.73
2023-02-19T05:28:47.502Z,4.69
2023-02-19T05:31:55.098Z,4.75
2023-02-19T05:35:02.294Z,4.69
2023-02-19T05:38:09.560Z,4.70
2023-02-19T05:41:17.453Z,4.62
2023-02-19T05:44:24.940Z,4.64
2023-02-19T05:47:32.516Z,4.69
2023-02-19T05:50:40.127Z,4.73
2023-02-19T05:53:47.347Z,4.62
2023-02-19T05:56:54.289Z,4.58
2023-02-19T06:00:02.211Z,4.47
2023-02-19T06:03:09.231Z,4.50
2023-02-19T06:06:16.751Z,4.47
2023-02-19T06:09:24.520Z,4.33
2023-02-19T06:12:31.500Z,4.12
2023-02-19T06:15:39.296Z,3.98
2023-02-19T06:18:46.666Z,3.98
2023-02-19T06:21:53.734Z,3.90
2023-02-19T06:25:01.975Z,3.88
2023-02-19T06:28:09.086Z,3.75
2023-02-19T06:31:16.976Z,3.57
2023-02-19T06:34:24.936Z,3.57
2023-02-19T06:37:32.523Z,3.54
2023-02-19T06:40:40.856Z,3.52
2023-02-19T06:43:48.538Z,3.42
2023-02-19T06:46:56.195Z,3.43
2023-02-19T06:50:07.631Z,3.42
2023-02-19T06:53:06.004Z,3.47
2023-02-19T06:56:13.025Z,3.52
2023-02-19T06:59:20.305Z,3.57
2023-02-19T07:02:28.837Z,3.61
2023-02-19T07:05:36.560Z,3.64
2023-02-19T07:08:44.870Z,3.70
2023-02-19T07:11:52.685Z,3.70
2023-02-19T07:15:00.045Z,3.64
2023-02-19T07:18:07.942Z,3.65
2023-02-19T07:21:15.216Z,3.58
2023-02-19T07:24:22.667Z,3.61
2023-02-19T07:27:29.910Z,3.50
2023-02-19T07:30:37.458Z,3.54
2023-02-19T07:33:45.058Z,3.64
2023-02-19T07:36:52.257Z,3.75
2023-02-19T07:40:00.141Z,3.79
2023-02-19T07:43:08.024Z,3.78
2023-02-19T07:46:15.159Z,3.85
2023-02-19T07:49:23.043Z,3.90
2023-02-19T07:52:30.820Z,4.01
2023-02-19T07:55:37.740Z,4.10
2023-02-19T07:58:45.726Z,4.08
2023-02-19T08:01:53.529Z,4.12
2023-02-19T08:05:00.687Z,4.16
2023-02-19T08:08:08.424Z,4.10
2023-02-19T08:11:15.767Z,4.14
2023-02-19T08:14:23.042Z,4.29
2023-02-19T08:17:30.577Z,4.32
2023-02-19T08:20:37.984Z,4.34
2023-02-19T08:23:45.165Z,4.32
2023-02-19T08:26:52.460Z,4.36
2023-02-19T08:30:00.287Z,4.28
2023-02-19T08:33:07.684Z,4.37
2023-02-19T08:36:15.276Z,4.39
2023-02-19T08:39:23.011Z,4.51
2023-02-19T08:42:30.614Z,4.64
2023-02-19T08:45:37.935Z,4.61
2023-02-19T08:48:45.259Z,4.50
2023-02-19T08:51:52.667Z,4.55
2023-02-19T08:54:59.865Z,4.61
2023-02-19T08:58:07.560Z,4.61
2023-02-19T09:01:15.597Z,4.73
2023-02-19T09:04:23.726Z,4.79
2023-02-19T09:07:31.107Z,4.75
2023-02-19T09:10:38.449Z,4.76
2023-02-19T09:13:46.196Z,4.75
2023-02-19T09:16:53.671Z,4.86
2023-02-19T09:20:01.292Z,4.92
2023-02-19T09:23:08.966Z,5.02
2023-02-19T09:26:15.955Z,4.95
2023-02-19T09:28:00.254Z,4.91
2023-02-19T09:31:07.233Z,5.04
2023-02-19T09:34:16.042Z,5.14
2023-02-19T09:37:40.342Z,5.17
2023-02-19T09:40:50.064Z,5.23
2023-02-19T09:43:59.907Z,5.31
2023-02-19T09:47:07.218Z,5.30
2023-02-19T09:48:01.433Z,5.28
2023-02-19T09:51:08.406Z,5.37
2023-02-19T09:53:07.336Z,5.31
2023-02-19T09:56:14.331Z,5.28
2023-02-19T09:58:15.252Z,5.32
2023-02-19T10:01:22.491Z,5.31
2023-02-19T10:04:30.051Z,5.43
2023-02-19T10:07:37.256Z,5.55
2023-02-19T10:10:46.210Z,5.59
2023-02-19T10:13:38.306Z,5.77
2023-02-19T10:16:46.717Z,5.89
2023-02-19T10:18:45.270Z,5.78
2023-02-19T10:21:54.365Z,5.73
2023-02-19T10:25:02.755Z,5.71
2023-02-19T10:28:11.912Z,5.74
2023-02-19T10:28:55.595Z,5.74
2023-02-19T10:32:02.900Z,5.83
2023-02-19T10:35:11.784Z,5.96
2023-02-19T10:38:18.909Z,5.92
2023-02-19T10:39:13.366Z,5.91
2023-02-19T10:42:22.312Z,5.96
2023-02-19T10:44:20.813Z,5.91
2023-02-19T10:47:30.195Z,5.89
2023-02-19T10:50:40.195Z,6.11
2023-02-19T10:53:49.211Z,6.03
2023-02-19T10:54:32.717Z,5.88
2023-02-19T10:57:39.632Z,5.85
2023-02-19T10:59:40.268Z,5.78
2023-02-19T11:02:48.107Z,5.74
2023-02-19T11:04:49.272Z,5.74
2023-02-19T11:07:56.684Z,5.93
2023-02-19T11:09:59.251Z,5.96
2023-02-19T11:13:02.684Z,6.04
2023-02-19T11:15:02.071Z,6.13
2023-02-19T11:18:10.672Z,6.10
2023-02-19T11:20:10.811Z,6.06
2023-02-19T11:23:17.700Z,6.22
2023-02-19T11:25:20.378Z,6.41
2023-02-19T11:28:16.854Z,6.66
2023-02-19T11:30:28.114Z,6.81
2023-02-19T11:33:35.265Z,6.81
2023-02-19T11:35:34.154Z,6.65
2023-02-19T11:38:43.890Z,6.58
2023-02-19T11:41:54.137Z,6.62
2023-02-19T11:45:01.201Z,6.58
2023-02-19T11:45:47.496Z,6.59
2023-02-19T11:48:56.330Z,6.58
2023-02-19T11:50:55.056Z,6.56
2023-02-19T11:54:04.387Z,6.43
2023-02-19T11:56:02.954Z,6.36
2023-02-19T11:59:11.093Z,6.40
2023-02-19T12:01:10.128Z,6.51
2023-02-19T12:04:12.469Z,6.71
2023-02-19T12:06:24.482Z,6.73
2023-02-19T12:09:25.469Z,6.95
2023-02-19T12:11:36.502Z,7.09
2023-02-19T12:14:43.922Z,7.26
2023-02-19T12:16:45.270Z,7.37
2023-02-19T12:19:52.686Z,7.35
2023-02-19T12:21:51.202Z,7.31
2023-02-19T12:24:59.707Z,7.26
2023-02-19T12:26:58.264Z,7.38
2023-02-19T12:30:08.473Z,7.35
2023-02-19T12:33:07.623Z,7.09
2023-02-19T12:36:53.718Z,6.86
2023-02-19T12:37:38.907Z,6.87
2023-02-19T12:40:46.974Z,6.86
2023-02-19T12:44:35.868Z,7.02
2023-02-19T12:47:35.029Z,7.23
2023-02-19T12:50:43.314Z,7.34
2023-02-19T12:52:52.619Z,7.38
2023-02-19T12:56:01.636Z,7.42
2023-02-19T12:58:00.125Z,7.47
2023-02-19T13:01:07.797Z,7.50
2023-02-19T13:04:17.618Z,7.44
2023-02-19T13:07:25.984Z,7.49
2023-02-19T13:08:09.480Z,7.52
2023-02-19T13:11:16.638Z,7.55
2023-02-19T13:14:26.982Z,7.47
2023-02-19T13:17:34.059Z,7.45
2023-02-19T13:18:17.521Z,7.45
2023-02-19T13:21:26.674Z,7.56
2023-02-19T13:24:34.834Z,7.62
2023-02-19T13:27:43.031Z,7.55
2023-02-19T13:30:50.843Z,7.52
2023-02-19T13:33:35.380Z,7.58
2023-02-19T13:36:33.549Z,7.71
2023-02-19T13:40:19.671Z,7.85
2023-02-19T13:43:46.941Z,7.62
2023-02-19T13:46:55.153Z,7.41
2023-02-19T13:48:57.049Z,7.27
2023-02-19T13:51:54.206Z,7.22
2023-02-19T13:54:42.579Z,7.22
2023-02-19T13:57:49.472Z,7.19
2023-02-19T14:00:56.809Z,7.13
2023-02-19T14:04:04.682Z,7.08
2023-02-19T14:07:13.084Z,7.12
2023-02-19T14:10:20.604Z,7.12
2023-02-19T14:13:29.223Z,7.07
2023-02-19T14:16:36.935Z,7.07
2023-02-19T14:19:44.360Z,7.04
2023-02-19T14:22:51.446Z,7.08
2023-02-19T14:25:59.225Z,7.12
2023-02-19T14:29:06.569Z,7.17
2023-02-19T14:32:13.783Z,7.20
2023-02-19T14:35:21.594Z,7.22
2023-02-19T14:38:28.627Z,7.16
2023-02-19T14:41:35.932Z,7.12
2023-02-19T14:44:43.804Z,7.08
2023-02-19T14:47:51.239Z,7.13
2023-02-19T14:50:58.671Z,7.15
2023-02-19T14:54:06.482Z,7.09
2023-02-19T14:57:13.779Z,7.04
2023-02-19T15:00:21.017Z,6.99
2023-02-19T15:03:28.445Z,6.98
2023-02-19T15:06:33.404Z,6.97
2023-02-19T15:09:36.799Z,6.95
2023-02-19T15:12:38.502Z,6.99
2023-02-19T15:15:49.338Z,7.04
2023-02-19T15:18:58.975Z,7.05
2023-02-19T15:22:08.094Z,7.08
2023-02-19T15:25:16.856Z,7.09
2023-02-19T15:28:23.939Z,7.07
2023-02-19T15:31:31.148Z,7.01
2023-02-19T15:34:38.970Z,6.90
2023-02-19T15:37:46.160Z,6.83
2023-02-19T15:40:53.676Z,6.76
2023-02-19T15:44:01.109Z,6.69
2023-02-19T15:47:08.769Z,6.63
2023-02-19T15:50:16.435Z,6.59
2023-02-19T15:53:23.959Z,6.53
2023-02-19T15:56:31.573Z,6.50
2023-02-19T15:59:38.927Z,6.47
2023-02-19T16:02:46.944Z,6.43
2023-02-19T16:05:54.910Z,6.35
2023-02-19T16:09:02.688Z,6.26
2023-02-19T16:12:11.339Z,6.18
2023-02-19T16:15:18.640Z,6.09
2023-02-19T16:18:26.533Z,6.07
2023-02-19T16:21:34.041Z,6.03
2023-02-19T16:24:42.421Z,5.93
2023-02-19T16:27:49.922Z,5.86
2023-02-19T16:30:57.338Z,5.75
2023-02-19T16:34:04.692Z,5.67
2023-02-19T16:37:12.351Z,5.57
2023-02-19T16:40:19.543Z,5.49
2023-02-19T16:43:27.250Z,5.41
2023-02-19T16:46:36.766Z,5.34
2023-02-19T16:49:44.184Z,5.27
2023-02-19T16:52:52.060Z,5.16
2023-02-19T16:55:59.674Z,5.09
2023-02-19T16:59:07.515Z,5.01
2023-02-19T17:02:16.547Z,4.92
2023-02-19T17:05:26.048Z,4.86
2023-02-19T17:08:34.672Z,4.79
2023-02-19T17:11:42.889Z,4.70
2023-02-19T17:14:50.037Z,4.59
2023-02-19T17:17:57.520Z,4.52
2023-02-19T17:21:05.218Z,4.44
2023-02-19T17:24:12.687Z,4.40
2023-02-19T17:27:20.684Z,4.36
2023-02-19T17:30:28.056Z,4.32
2023-02-19T17:33:35.181Z,4.24
2023-02-19T17:36:42.292Z,4.16
2023-02-19T17:39:51.037Z,4.07
2023-02-19T17:42:58.651Z,4.03
2023-02-19T17:46:05.982Z,4.01
2023-02-19T17:49:14.113Z,4.03
2023-02-19T17:52:21.486Z,4.03
2023-02-19T17:55:28.543Z,4.04
2023-02-19T17:58:36.088Z,4.00
2023-02-19T18:01:43.495Z,3.96
2023-02-19T18:04:50.673Z,3.89
2023-02-19T18:07:58.473Z,3.88
2023-02-19T18:11:06.298Z,3.83
2023-02-19T18:14:13.925Z,3.79
2023-02-19T18:17:21.847Z,3.78
2023-02-19T18:20:29.467Z,3.72
2023-02-19T18:23:36.955Z,3.72
2023-02-19T18:26:44.537Z,3.68
2023-02-19T18:29:52.241Z,3.61
2023-02-19T18:32:59.914Z,3.58
2023-02-19T18:36:07.151Z,3.52
2023-02-19T18:39:14.698Z,3.50
2023-02-19T18:42:21.899Z,3.47
2023-02-19T18:45:29.569Z,3.47
2023-02-19T18:48:37.149Z,3.49
2023-02-19T18:51:44.023Z,3.46
2023-02-19T18:54:51.635Z,3.42
2023-02-19T18:57:59.414Z,3.40
2023-02-19T19:01:06.556Z,3.39
2023-02-19T19:04:14.009Z,3.36
2023-02-19T19:07:21.430Z,3.36
2023-02-19T19:10:28.387Z,3.42
2023-02-19T19:13:36.425Z,3.46
2023-02-19T19:16:43.891Z,3.49
2023-02-19T19:19:51.148Z,3.52
2023-02-19T19:22:58.532Z,3.60
2023-02-19T19:26:06.118Z,3.62
2023-02-19T19:29:13.323Z,3.62
2023-02-19T19:32:20.803Z,3.60
2023-02-19T19:35:28.283Z,3.61
2023-02-19T19:38:35.546Z,3.61
2023-02-19T19:41:42.953Z,3.61
2023-02-19T19:44:50.722Z,3.62
2023-02-19T19:47:57.650Z,3.62
2023-02-19T19:51:04.966Z,3.61
2023-02-19T19:54:12.911Z,3.61
2023-02-19T19:57:19.937Z,3.64
2023-02-19T20:00:27.680Z,3.68
2023-02-19T20:03:35.671Z,3.71
2023-02-19T20:06:42.749Z,3.78
2023-02-19T20:09:49.924Z,3.85
2023-02-19T20:12:57.365Z,3.88
2023-02-19T20:16:05.042Z,3.97
2023-02-19T20:19:12.596Z,4.00
2023-02-19T20:22:19.965Z,4.03
2023-02-19T20:25:27.804Z,4.04
2023-02-19T20:28:35.302Z,4.07
2023-02-19T20:31:43.004Z,4.07
2023-02-19T20:34:50.509Z,4.06
2023-02-19T20:37:58.017Z,4.06
2023-02-19T20:41:05.451Z,4.07
2023-02-19T20:44:13.034Z,4.06
2023-02-19T20:47:20.463Z,4.07
2023-02-19T20:50:27.765Z,4.08
2023-02-19T20:53:35.422Z,4.10
2023-02-19T20:56:42.960Z,4.12
2023-02-19T20:59:50.674Z,4.14
2023-02-19T21:02:58.284Z,4.16
2023-02-19T21:06:05.329Z,4.12
2023-02-19T21:09:13.098Z,4.14
2023-02-19T21:12:20.816Z,4.14
2023-02-19T21:15:27.914Z,4.10
2023-02-19T21:18:35.651Z,4.04
2023-02-19T21:21:42.959Z,3.98
2023-02-19T21:24:50.305Z,3.89
2023-02-19T21:27:58.056Z,3.79
2023-02-19T21:31:05.408Z,3.70
2023-02-19T21:34:12.908Z,3.65
2023-02-19T21:37:20.925Z,3.62
2023-02-19T21:40:28.429Z,3.58
2023-02-19T21:43:35.899Z,3.53
2023-02-19T21:46:43.441Z,3.49
2023-02-19T21:49:50.648Z,3.50
2023-02-19T21:52:58.445Z,3.47
2023-02-19T21:56:06.062Z,3.43
2023-02-19T21:59:13.187Z,3.43
2023-02-19T22:02:20.970Z,3.49
2023-02-19T22:05:28.433Z,3.62
2023-02-19T22:08:35.734Z,3.75
2023-02-19T22:11:43.698Z,3.82
2023-02-19T22:14:51.260Z,3.90
2023-02-19T22:17:58.743Z,4.01
2023-02-19T22:21:06.071Z,4.15
2023-02-19T22:24:13.992Z,4.21
2023-02-19T22:27:21.441Z,4.33
2023-02-19T22:30:28.751Z,4.42
2023-02-19T22:33:36.509Z,4.51
2023-02-19T22:36:43.983Z,4.58
2023-02-19T22:39:51.370Z,4.62
2023-02-19T22:42:59.049Z,4.67
2023-02-19T22:46:06.042Z,4.69
2023-02-19T22:49:13.614Z,4.73
2023-02-19T22:52:21.188Z,4.77
2023-02-19T22:55:28.287Z,4.77
2023-02-19T22:58:36.170Z,4.77
2023-02-19T23:01:43.897Z,4.76
2023-02-19T23:04:50.920Z,4.77
2023-02-19T23:07:58.802Z,4.76
2023-02-19T23:11:06.210Z,4.76
2023-02-19T23:14:13.897Z,4.73
2023-02-19T23:17:20.976Z,4.75
2023-02-19T23:20:28.417Z,4.77
2023-02-19T23:23:36.256Z,4.83
2023-02-19T23:26:43.646Z,4.84
2023-02-19T23:29:51.039Z,4.80
2023-02-19T23:32:58.962Z,4.83
2023-02-19T23:36:06.265Z,4.88
2023-02-19T23:39:13.516Z,4.94
2023-02-19T23:42:21.192Z,4.95
2023-02-19T23:45:28.294Z,4.96
2023-02-19T23:48:35.916Z,5.02
2023-02-19T23:51:43.765Z,5.09
2023-02-19T23:54:50.763Z,5.12
2023-02-19T23:57:58.825Z,5.13
